Contact Us:
Email: info@sawbill.com
Phone: (218)663-7150
Fax: (218)663-7980
Mail: 4620 Sawbill Trail
Box 2129
Tofte, MN 55615


Powered by
Movable Type 3.15
 
Sawbill Weather History Archives: October 2009
Current Sawbill Weather History | « September 2009 | November 2009 »


Date

High
Temperature

Low
Temperature

Barometric
Pressure

Relative
Humidity 7AM

9 AM
Temperature

Moisture

Snow

10/31/09 33 30 30.27 98% 33 0
10/30/09 52 32 29.92 98% 33 .24" Trace
10/29/09 47 45 29.68 98% 46 .24"
10/28/09 45 31 30.15 98% 40 Trace
10/27/09 45 30 30.15 93% 31 0
10/26/09 40 32 30.12 95% 32 .16" Trace
10/25/09 37 32 30.30 98% 34 .16" 1"
10/24/09 39 29 30.15 88% 32 0
10/23/09 35 29 29.77 90% 29 .09" 1"
10/22/09 36 28 30.21 94% 32 0
10/21/09 40 28 30.42 90% 28 .02" Trace
10/20/09 46 37 30.36 88% 37 .55" 4"
10/19/09 47 36 30.01 98% 37 .04"
10/18/09 50 38 29.91 98% 41 0
10/17/09 39 31 30.50 94% 31 0
10/16/09 39 31 30.53 97% 33 .08" .5"
10/15/09 35 32 30.42 97% 33 .14" 1"
10/14/09 37 26 30.36 94% 32 .02" Trace
10/13/09 38 26 30.56 82% 26 0
10/12/09 34 28 30.53 94% 30 Trace Trace
10/11/09 36 29 30.42 69% 31 0
10/10/09 31 25 30.36 81% 29 .04" .5"
10/9/09 41 25 30.09 87% 33 .07" 1"
10/8/09 46 33 30.18 89% 33 .02" Trace
10/7/09 47 38 29.97 73% 39 .02"
10/6/09 44 37 30.00 98% 38 .26"
10/5/09 48 42 30.03 96% 43 Trace
10/4/09 48 41 30.24 97% 43 .05"
10/3/09 44 41 30.12 98% 41 .14"
10/2/09 44 40 30.00 98% 41 .12"
10/1/09 51 37 29.97 88% 41 Trace
 


Home I Trip Planning I Rentals and Outfitting I Reservations I Campgrounds I Sawbill Store I Sawbill News I Contact

© 1997 - 2017, Sawbill Canoe Outfitters, Inc. I Privacy Policy